KSEM/SEM METAR and TAF weather

Enter ICAO airport designator
Station Type Date Time Source
KSEM METAR 2021/04/13 21:55 UTC NOAA

KSEM 132155Z AUTO 23004KT 8SM CLR 27/13 A3002 RMK AO2


Station Type Date Time Source
KSEM Decoded METAR 2021/04/13 21:55 UTC NOAA

Craig Field / Selma, AL, United States (KSEM) 32-21N 086-59W
Apr 13, 2021 - 05:55 PM EDT / 2021.04.13 2155 UTC
Wind: from the SW (230 degrees) at 5 MPH (4 KT):0
Visibility: 8 mile(s):0
Sky conditions: clear
Temperature: 80 F (27 C)
Dew Point: 55 F (13 C)
Relative Humidity: 41%
Pressure (altimeter): 30.02 in. Hg (1016 hPa)
ob: KSEM 132155Z AUTO 23004KT 8SM CLR 27/13 A3002 RMK AO2
cycle: 22

Station Type Date Time Source
KSEM TAF UTC NOAA

Error!

Example: see airport list